Fulshear, Texas
Current Conditions -  °F | °C
As of 10:15 PM on Monday 22 Dec 2014 (Local Time) from KTME Reporting Station
Moderate Fog Moderate Fog  
Wind Chill: 59°   Ceiling: 200
Heat Index: 59°   Visibility: 0.25mi
Dew Point: 59°   Wind: 6mph
Humidity: 100%   Direction: 200°SSW
Pressure: 29.7"   Gusts: NA
Location:  29.69°N, 95.9°W
Report Text: KTME 230415Z AUTO 20005KT 1/4SM FG OVC002 15/15 A2970 RMK AO2
Loading
Personal Weather Stations






























Interactive Weather Map New forecast layout! Learn more

10-Day Weather Forecast

Advertisements
Track Severe Weather on mobile